Japeri, Brazil
Current Conditions -  °F | °C
As of 4:11 PM on Sunday 25 Jan 2015 (Local Time) from SBSC Reporting Station
Thunderstorm Thunderstorm  
Wind Chill: 90°   Ceiling: Unl
Heat Index: 90°   Visibility: 5mi
Dew Point: 61°   Wind: 14mph
Humidity: 38%   Direction: 340°NNW
Pressure: 29.83"   Gusts: NA
Location:  22.64°S, 43.65°W
Report Text: SBSC 251811Z 34012KT 8000 TS SCT030 FEW035CB 32/16 Q1010
Loading
Personal Weather Stations






























Interactive Weather Map New forecast layout! Learn more

10-Day Weather Forecast

Advertisements
Track Severe Weather on mobile